createdAt,value
2023-04-04T00:00:45.096Z,75.20
2023-04-04T00:03:12.059Z,75.20
2023-04-04T00:05:39.130Z,75.40
2023-04-04T00:08:06.131Z,75.60
2023-04-04T00:10:33.102Z,75.90
2023-04-04T00:13:00.030Z,76.20
2023-04-04T00:15:27.377Z,76.00
2023-04-04T00:17:54.217Z,76.20
2023-04-04T00:20:20.954Z,76.00
2023-04-04T00:22:47.893Z,76.20
2023-04-04T00:25:15.278Z,76.70
2023-04-04T00:27:42.185Z,77.10
2023-04-04T00:30:09.457Z,77.30
2023-04-04T00:32:36.415Z,77.80
2023-04-04T00:35:03.311Z,77.70
2023-04-04T00:37:30.045Z,77.70
2023-04-04T00:39:56.837Z,77.90
2023-04-04T00:42:23.965Z,78.10
2023-04-04T00:44:52.588Z,78.30
2023-04-04T00:47:24.615Z,78.40
2023-04-04T00:49:52.415Z,79.30
2023-04-04T00:52:19.432Z,79.00
2023-04-04T00:54:46.172Z,79.40
2023-04-04T00:57:13.253Z,79.20
2023-04-04T00:59:40.060Z,79.40
2023-04-04T01:02:06.951Z,79.70
2023-04-04T01:04:33.862Z,79.50
2023-04-04T01:07:02.033Z,79.90
2023-04-04T01:09:29.157Z,80.30
2023-04-04T01:11:56.825Z,80.20
2023-04-04T01:14:24.069Z,81.10
2023-04-04T01:16:51.638Z,80.30
2023-04-04T01:19:35.578Z,80.40
2023-04-04T01:22:03.143Z,80.90
2023-04-04T01:24:34.159Z,81.20
2023-04-04T01:27:01.878Z,81.20
2023-04-04T01:29:28.725Z,82.10
2023-04-04T01:32:07.541Z,81.40
2023-04-04T01:34:50.405Z,81.30
2023-04-04T01:37:44.603Z,81.30
2023-04-04T01:40:24.035Z,81.00
2023-04-04T01:42:51.991Z,80.70
2023-04-04T01:45:21.332Z,80.30
2023-04-04T01:47:48.129Z,79.70
2023-04-04T01:50:16.499Z,79.50
2023-04-04T01:52:43.797Z,79.40
2023-04-04T01:55:10.719Z,79.40
2023-04-04T01:57:37.519Z,79.70
2023-04-04T02:00:05.550Z,80.00
2023-04-04T02:02:32.376Z,80.10
2023-04-04T02:04:59.486Z,80.10
2023-04-04T02:07:26.262Z,79.80
2023-04-04T02:09:53.433Z,80.20
2023-04-04T02:12:20.258Z,80.00
2023-04-04T02:14:47.064Z,80.40
2023-04-04T02:17:13.752Z,81.00
2023-04-04T02:19:40.863Z,81.30
2023-04-04T02:22:07.631Z,81.40
2023-04-04T02:24:34.392Z,81.20
2023-04-04T02:27:01.047Z,81.10
2023-04-04T02:29:27.858Z,81.10
2023-04-04T02:31:54.556Z,81.20
2023-04-04T02:34:21.318Z,80.80
2023-04-04T02:36:48.064Z,80.80
2023-04-04T02:39:14.985Z,80.70
2023-04-04T02:41:41.758Z,80.90
2023-04-04T02:44:09.876Z,80.60
2023-04-04T02:46:36.877Z,80.60
2023-04-04T02:49:04.100Z,80.50
2023-04-04T02:51:31.217Z,80.70
2023-04-04T02:53:57.978Z,80.80
2023-04-04T02:56:24.679Z,80.70
2023-04-04T02:58:51.414Z,80.70
2023-04-04T03:01:18.559Z,80.70
2023-04-04T03:03:46.601Z,80.90
2023-04-04T03:06:15.047Z,80.90
2023-04-04T03:08:42.288Z,80.90
2023-04-04T03:11:09.200Z,80.90
2023-04-04T03:13:36.135Z,81.00
2023-04-04T03:16:06.707Z,80.90
2023-04-04T03:18:34.722Z,81.10
2023-04-04T03:21:01.655Z,81.20
2023-04-04T03:23:28.325Z,81.10
2023-04-04T03:25:55.183Z,81.20
2023-04-04T03:28:23.158Z,81.50
2023-04-04T03:30:50.257Z,81.80
2023-04-04T03:33:17.265Z,81.80
2023-04-04T03:35:44.132Z,81.70
2023-04-04T03:38:11.181Z,81.90
2023-04-04T03:40:37.943Z,81.90
2023-04-04T03:43:07.558Z,82.00
2023-04-04T03:45:35.913Z,82.20
2023-04-04T03:48:03.959Z,82.60
2023-04-04T03:50:31.306Z,82.70
2023-04-04T03:52:58.555Z,82.70
2023-04-04T03:55:26.213Z,83.00
2023-04-04T03:57:53.202Z,83.20
2023-04-04T04:00:19.960Z,83.30
2023-04-04T04:02:46.849Z,83.50
2023-04-04T04:05:13.782Z,83.40
2023-04-04T04:07:44.471Z,83.30
2023-04-04T04:10:14.135Z,83.70
2023-04-04T04:12:41.528Z,83.60
2023-04-04T04:15:08.672Z,83.40
2023-04-04T04:17:40.390Z,83.60
2023-04-04T04:20:08.658Z,84.00
2023-04-04T04:22:35.916Z,84.20
2023-04-04T04:25:02.782Z,84.20
2023-04-04T04:27:30.488Z,84.30
2023-04-04T04:29:57.296Z,84.00
2023-04-04T04:32:26.538Z,84.00
2023-04-04T04:34:53.530Z,83.70
2023-04-04T04:37:20.353Z,83.60
2023-04-04T04:39:47.071Z,83.20
2023-04-04T04:42:13.776Z,83.10
2023-04-04T04:44:40.793Z,83.00
2023-04-04T04:47:07.603Z,83.20
2023-04-04T04:49:34.574Z,83.50
2023-04-04T04:52:02.520Z,83.60
2023-04-04T04:54:29.359Z,83.30
2023-04-04T04:56:56.259Z,83.30
2023-04-04T04:59:23.158Z,83.30
2023-04-04T05:01:49.965Z,83.40
2023-04-04T05:04:17.661Z,83.40
2023-04-04T05:06:44.495Z,83.20
2023-04-04T05:09:11.357Z,83.20
2023-04-04T05:11:38.782Z,83.70
2023-04-04T05:14:06.238Z,83.60
2023-04-04T05:16:33.654Z,83.80
2023-04-04T05:19:09.292Z,83.90
2023-04-04T05:21:36.509Z,83.70
2023-04-04T05:24:03.294Z,84.60
2023-04-04T05:26:30.268Z,84.50
2023-04-04T05:28:59.200Z,84.40
2023-04-04T05:31:26.422Z,84.10
2023-04-04T05:33:53.946Z,84.00
2023-04-04T05:36:20.786Z,84.20
2023-04-04T05:38:47.872Z,84.00
2023-04-04T05:41:14.803Z,84.30
2023-04-04T05:43:41.971Z,84.10
2023-04-04T05:46:08.843Z,84.00
2023-04-04T05:48:35.763Z,83.90
2023-04-04T05:51:02.465Z,84.10
2023-04-04T05:53:29.975Z,84.50
2023-04-04T05:55:58.606Z,84.30
2023-04-04T05:58:26.429Z,84.40
2023-04-04T06:00:53.366Z,84.00
2023-04-04T06:03:22.015Z,84.10
2023-04-04T06:05:53.112Z,84.20
2023-04-04T06:08:20.209Z,84.20
2023-04-04T06:10:46.942Z,84.50
2023-04-04T06:13:13.633Z,84.30
2023-04-04T06:15:40.458Z,84.10
2023-04-04T06:18:07.284Z,84.00
2023-04-04T06:20:34.133Z,83.60
2023-04-04T06:23:04.159Z,83.40
2023-04-04T06:25:33.839Z,83.30
2023-04-04T06:28:00.769Z,83.00
2023-04-04T06:30:27.817Z,82.90
2023-04-04T06:32:54.755Z,81.60
2023-04-04T06:35:22.160Z,80.90
2023-04-04T06:37:55.868Z,80.20
2023-04-04T06:40:23.354Z,80.50
2023-04-04T06:42:52.193Z,80.00
2023-04-04T06:45:19.018Z,80.20
2023-04-04T06:47:46.713Z,79.50
2023-04-04T06:50:13.879Z,79.50
2023-04-04T06:52:40.702Z,79.30
2023-04-04T06:55:08.519Z,78.10
2023-04-04T06:57:35.254Z,77.80
2023-04-04T07:00:03.420Z,78.10
2023-04-04T07:02:30.522Z,77.60
2023-04-04T07:04:57.450Z,77.70
2023-04-04T07:07:24.717Z,76.70
2023-04-04T07:09:51.499Z,77.00
2023-04-04T07:12:18.295Z,77.50
2023-04-04T07:14:45.065Z,77.30
2023-04-04T07:17:21.828Z,76.50
2023-04-04T07:19:51.396Z,77.20
2023-04-04T07:22:18.380Z,76.90
2023-04-04T07:24:45.177Z,76.40
2023-04-04T07:27:15.260Z,76.20
2023-04-04T07:29:42.586Z,75.20
2023-04-04T07:32:09.476Z,75.10
2023-04-04T07:34:36.551Z,75.10
2023-04-04T07:37:03.763Z,74.80
2023-04-04T07:39:31.303Z,73.70
2023-04-04T07:41:58.063Z,74.00
2023-04-04T07:44:24.845Z,74.00
2023-04-04T07:47:02.395Z,74.10
2023-04-04T07:49:35.837Z,74.00
2023-04-04T07:52:03.231Z,73.80
2023-04-04T07:54:29.960Z,73.30
2023-04-04T07:56:56.649Z,73.60
2023-04-04T07:59:23.396Z,71.50
2023-04-04T08:01:50.235Z,71.60
2023-04-04T08:04:17.159Z,71.70
2023-04-04T08:06:44.036Z,71.80
2023-04-04T08:09:10.807Z,71.60
2023-04-04T08:11:37.762Z,71.40
2023-04-04T08:14:04.859Z,70.90
2023-04-04T08:16:31.791Z,70.20
2023-04-04T08:19:00.167Z,70.30
2023-04-04T08:21:27.705Z,70.80
2023-04-04T08:23:54.675Z,70.50
2023-04-04T08:26:22.044Z,70.90
2023-04-04T08:28:49.298Z,72.00
2023-04-04T08:31:16.835Z,70.30
2023-04-04T08:33:47.607Z,70.60
2023-04-04T08:36:14.908Z,70.50
2023-04-04T08:38:41.649Z,71.90
2023-04-04T08:41:09.692Z,71.60
2023-04-04T08:43:38.486Z,71.00
2023-04-04T08:46:08.904Z,70.20
2023-04-04T08:48:38.998Z,70.10
2023-04-04T08:51:08.890Z,69.60
2023-04-04T08:53:37.471Z,68.90
2023-04-04T08:56:04.531Z,70.50
2023-04-04T08:58:31.357Z,69.80
2023-04-04T09:00:58.310Z,68.90
2023-04-04T09:03:27.305Z,69.00
2023-04-04T09:05:55.388Z,69.50
2023-04-04T09:08:24.815Z,69.60
2023-04-04T09:10:52.825Z,68.60
2023-04-04T09:13:20.002Z,67.40
2023-04-04T09:15:49.369Z,67.00
2023-04-04T09:18:18.047Z,66.00
2023-04-04T09:20:47.171Z,65.40
2023-04-04T09:23:20.176Z,65.90
2023-04-04T09:26:03.207Z,66.20
2023-04-04T09:28:31.992Z,66.80
2023-04-04T09:31:02.369Z,66.80
2023-04-04T09:33:29.323Z,65.80
2023-04-04T09:35:59.563Z,66.30
2023-04-04T09:38:28.380Z,64.00
2023-04-04T09:40:56.881Z,64.20
2023-04-04T09:43:25.174Z,65.10
2023-04-04T09:45:54.849Z,65.00
2023-04-04T09:48:35.321Z,66.10
2023-04-04T09:51:05.910Z,65.10
2023-04-04T09:53:36.424Z,64.50
2023-04-04T09:56:03.558Z,64.60
2023-04-04T09:58:32.644Z,63.70
2023-04-04T10:01:08.507Z,63.80
2023-04-04T10:03:38.247Z,64.20
2023-04-04T10:06:07.606Z,63.40
2023-04-04T10:08:37.437Z,65.00
2023-04-04T10:13:40.583Z,65.00
2023-04-04T10:16:08.755Z,65.70
2023-04-04T10:18:36.765Z,66.10
2023-04-04T10:21:15.365Z,66.00
2023-04-04T10:23:45.569Z,65.10
2023-04-04T10:26:13.413Z,64.30
2023-04-04T10:28:42.507Z,63.50
2023-04-04T10:31:25.922Z,62.70
2023-04-04T10:34:17.551Z,62.60
2023-04-04T10:37:05.931Z,63.20
2023-04-04T10:39:33.427Z,62.20
2023-04-04T10:42:01.569Z,63.20
2023-04-04T10:44:39.801Z,61.80
2023-04-04T10:47:15.246Z,61.40
2023-04-04T10:49:46.413Z,63.50
2023-04-04T10:52:16.919Z,63.10
2023-04-04T10:54:44.853Z,62.70
2023-04-04T10:57:14.055Z,62.30
2023-04-04T10:59:57.724Z,62.10
2023-04-04T11:02:52.709Z,60.80
2023-04-04T11:05:46.986Z,59.10
2023-04-04T11:08:24.941Z,57.40
2023-04-04T11:10:53.659Z,57.60
2023-04-04T11:13:29.446Z,58.60
2023-04-04T11:16:05.336Z,58.10
2023-04-04T11:18:33.953Z,58.60
2023-04-04T11:21:06.827Z,58.30
2023-04-04T11:23:59.969Z,56.10
2023-04-04T11:26:27.622Z,56.80
2023-04-04T11:29:02.239Z,54.90
2023-04-04T11:31:40.954Z,55.20
2023-04-04T11:34:12.700Z,55.70
2023-04-04T11:36:40.208Z,53.90
2023-04-04T11:39:30.500Z,53.70
2023-04-04T11:42:08.286Z,54.40
2023-04-04T11:44:43.041Z,54.20
2023-04-04T11:47:11.300Z,54.40
2023-04-04T11:49:40.842Z,54.90
2023-04-04T11:52:12.598Z,54.70
2023-04-04T11:54:40.892Z,55.00
2023-04-04T11:57:11.336Z,53.50
2023-04-04T11:59:46.029Z,54.00
2023-04-04T12:02:15.716Z,54.30
2023-04-04T12:04:45.939Z,54.60
2023-04-04T12:07:16.640Z,55.00
2023-04-04T12:09:44.228Z,55.00
2023-04-04T12:12:17.396Z,54.60
2023-04-04T12:14:44.804Z,53.00
2023-04-04T12:17:11.885Z,53.80
2023-04-04T12:19:40.496Z,53.90
2023-04-04T12:22:08.536Z,54.40
2023-04-04T12:24:36.354Z,54.20
2023-04-04T12:27:03.883Z,54.10
2023-04-04T12:29:39.029Z,54.40
2023-04-04T12:32:07.698Z,53.80
2023-04-04T12:34:41.074Z,52.90
2023-04-04T12:37:10.415Z,51.60
2023-04-04T12:39:48.795Z,51.80
2023-04-04T12:42:22.625Z,52.60
2023-04-04T12:44:52.282Z,52.20
2023-04-04T12:47:21.212Z,51.90
2023-04-04T12:49:48.910Z,51.50
2023-04-04T12:52:32.491Z,51.20
2023-04-04T12:55:08.534Z,51.50
2023-04-04T12:57:36.734Z,51.60
2023-04-04T13:00:06.576Z,51.10
2023-04-04T13:02:36.808Z,51.70
2023-04-04T13:05:05.385Z,52.10
2023-04-04T13:07:39.128Z,50.90
2023-04-04T13:10:06.760Z,51.80
2023-04-04T13:12:58.934Z,50.10
2023-04-04T13:15:49.272Z,50.90
2023-04-04T13:18:22.155Z,50.90
2023-04-04T13:20:49.864Z,50.30
2023-04-04T13:23:17.108Z,50.20
2023-04-04T13:25:43.879Z,49.60
2023-04-04T13:28:14.440Z,50.10
2023-04-04T13:30:46.610Z,48.60
2023-04-04T13:33:13.761Z,48.20
2023-04-04T13:35:43.759Z,49.40
2023-04-04T13:38:11.536Z,49.50
2023-04-04T13:40:38.438Z,50.20
2023-04-04T13:43:05.332Z,49.70
2023-04-04T13:45:33.858Z,49.60
2023-04-04T13:48:01.177Z,49.90
2023-04-04T13:50:28.381Z,48.80
2023-04-04T13:52:56.635Z,49.20
2023-04-04T13:55:23.561Z,49.10
2023-04-04T13:57:50.431Z,48.50
2023-04-04T14:00:17.609Z,49.10
2023-04-04T14:02:44.415Z,49.10
2023-04-04T14:05:11.868Z,47.50
2023-04-04T14:07:38.838Z,47.10
2023-04-04T14:10:06.175Z,46.80
2023-04-04T14:12:32.999Z,48.20
2023-04-04T14:14:59.727Z,48.40
2023-04-04T14:17:26.470Z,48.10
2023-04-04T14:19:53.294Z,48.20
2023-04-04T14:22:19.957Z,47.80
2023-04-04T14:24:46.872Z,48.40
2023-04-04T14:27:13.619Z,48.30
2023-04-04T14:29:40.541Z,47.90
2023-04-04T14:32:07.350Z,47.40
2023-04-04T14:34:34.134Z,47.70
2023-04-04T14:37:00.898Z,48.70
2023-04-04T14:39:27.923Z,48.50
2023-04-04T14:41:54.675Z,47.30
2023-04-04T14:44:21.976Z,48.10
2023-04-04T14:46:51.842Z,47.30
2023-04-04T14:49:18.937Z,47.60
2023-04-04T14:51:45.749Z,47.70
2023-04-04T14:54:12.651Z,46.70
2023-04-04T14:56:39.419Z,48.10
2023-04-04T14:59:07.004Z,47.90
2023-04-04T15:01:33.889Z,48.00
2023-04-04T15:04:00.683Z,48.30
2023-04-04T15:06:27.653Z,48.30
2023-04-04T15:08:54.395Z,48.40
2023-04-04T15:11:21.396Z,47.70
2023-04-04T15:13:48.138Z,48.40
2023-04-04T15:16:15.316Z,47.80
2023-04-04T15:18:42.114Z,47.60
2023-04-04T15:21:08.873Z,48.20
2023-04-04T15:23:35.697Z,48.10
2023-04-04T15:26:03.078Z,48.50
2023-04-04T15:28:29.959Z,48.50
2023-04-04T15:30:57.135Z,48.40
2023-04-04T15:33:23.942Z,48.70
2023-04-04T15:35:50.876Z,48.70
2023-04-04T15:38:17.733Z,49.10
2023-04-04T15:40:44.501Z,49.10
2023-04-04T15:43:11.339Z,49.60
2023-04-04T15:45:38.493Z,48.90
2023-04-04T15:48:05.642Z,49.30
2023-04-04T15:50:32.477Z,49.40
2023-04-04T15:52:59.192Z,49.70
2023-04-04T15:55:27.534Z,50.10
2023-04-04T15:57:54.299Z,49.90
2023-04-04T16:00:21.446Z,49.60
2023-04-04T16:02:48.346Z,49.90
2023-04-04T16:05:15.274Z,50.20
2023-04-04T16:07:42.100Z,50.00
2023-04-04T16:10:09.688Z,50.80
2023-04-04T16:12:36.630Z,50.90
2023-04-04T16:15:05.312Z,50.80
2023-04-04T16:17:33.234Z,50.80
2023-04-04T16:20:00.208Z,51.00
2023-04-04T16:22:26.974Z,51.20
2023-04-04T16:24:53.722Z,51.60
2023-04-04T16:27:20.514Z,52.10
2023-04-04T16:29:47.361Z,52.30
2023-04-04T16:32:14.130Z,52.70
2023-04-04T16:34:40.929Z,52.40
2023-04-04T16:37:09.736Z,52.70
2023-04-04T16:39:36.627Z,53.10
2023-04-04T16:42:03.574Z,52.50
2023-04-04T16:44:30.482Z,53.10
2023-04-04T16:46:57.250Z,53.50
2023-04-04T16:49:24.242Z,53.70
2023-04-04T16:51:51.082Z,53.20
2023-04-04T16:54:17.812Z,52.80
2023-04-04T16:56:44.552Z,53.00
2023-04-04T16:59:11.378Z,53.50
2023-04-04T17:01:38.619Z,53.50
2023-04-04T17:04:05.829Z,53.50
2023-04-04T17:06:33.404Z,53.80
2023-04-04T17:09:00.145Z,53.60
2023-04-04T17:11:28.201Z,53.30
2023-04-04T17:13:54.917Z,53.50
2023-04-04T17:18:50.204Z,54.60
2023-04-04T17:21:17.680Z,55.00
2023-04-04T17:23:44.396Z,54.90
2023-04-04T17:26:11.318Z,54.70
2023-04-04T17:28:38.360Z,54.90
2023-04-04T17:31:05.286Z,54.20
2023-04-04T17:33:33.050Z,54.40
2023-04-04T17:35:59.964Z,54.80
2023-04-04T17:38:26.838Z,55.40
2023-04-04T17:40:53.630Z,55.70
2023-04-04T17:43:21.272Z,56.10
2023-04-04T17:45:48.123Z,56.00
2023-04-04T17:48:14.871Z,55.90
2023-04-04T17:50:43.178Z,56.20
2023-04-04T17:53:10.363Z,56.10
2023-04-04T17:55:37.274Z,56.30
2023-04-04T17:58:04.129Z,56.50
2023-04-04T18:00:31.333Z,56.50
2023-04-04T18:02:58.693Z,56.80
2023-04-04T18:05:28.769Z,57.10
2023-04-04T18:07:56.107Z,57.30
2023-04-04T18:10:22.877Z,57.70
2023-04-04T18:12:49.737Z,57.60
2023-04-04T18:15:16.704Z,57.80
2023-04-04T18:17:43.566Z,57.70
2023-04-04T18:20:14.243Z,57.60
2023-04-04T18:22:46.149Z,57.70
2023-04-04T18:25:12.941Z,57.80
2023-04-04T18:27:40.392Z,58.20
2023-04-04T18:30:08.071Z,58.20
2023-04-04T18:32:35.990Z,58.50
2023-04-04T18:35:03.815Z,58.40
2023-04-04T18:37:31.121Z,58.40
2023-04-04T18:39:57.908Z,58.50
2023-04-04T18:42:26.049Z,58.60
2023-04-04T18:44:53.796Z,58.70
2023-04-04T18:47:21.423Z,59.10
2023-04-04T18:49:48.352Z,59.20
2023-04-04T18:52:24.406Z,60.40
2023-04-04T18:54:51.307Z,61.00
2023-04-04T18:57:19.731Z,61.30
2023-04-04T18:59:47.239Z,60.60
2023-04-04T19:02:14.106Z,61.20
2023-04-04T19:04:41.179Z,61.20
2023-04-04T19:07:09.302Z,61.50
2023-04-04T19:09:37.981Z,61.60
2023-04-04T19:12:04.854Z,62.20
2023-04-04T19:14:31.790Z,62.30
2023-04-04T19:16:59.180Z,62.00
2023-04-04T19:19:26.706Z,61.40
2023-04-04T19:21:53.597Z,61.60
2023-04-04T19:24:20.935Z,61.70
2023-04-04T19:26:50.350Z,61.60
2023-04-04T19:29:21.307Z,62.00
2023-04-04T19:31:48.869Z,62.10
2023-04-04T19:34:16.205Z,62.50
2023-04-04T19:36:43.256Z,62.80
2023-04-04T19:39:11.115Z,62.50
2023-04-04T19:41:39.719Z,62.50
2023-04-04T19:44:13.956Z,63.40
2023-04-04T19:46:41.226Z,63.30
2023-04-04T19:49:14.788Z,63.20
2023-04-04T19:51:56.128Z,63.20
2023-04-04T19:54:32.248Z,62.80
2023-04-04T19:57:01.054Z,62.60
2023-04-04T19:59:59.395Z,63.00
2023-04-04T20:02:49.368Z,64.00
2023-04-04T20:05:32.448Z,63.40
2023-04-04T20:08:01.020Z,63.40
2023-04-04T20:10:42.238Z,63.90
2023-04-04T20:13:09.793Z,64.10
2023-04-04T20:15:46.489Z,64.50
2023-04-04T20:18:34.856Z,64.80
2023-04-04T20:21:07.304Z,65.30
2023-04-04T20:23:45.563Z,65.40
2023-04-04T20:26:16.224Z,65.30
2023-04-04T20:28:46.799Z,65.40
2023-04-04T20:31:20.421Z,65.30
2023-04-04T20:33:48.236Z,65.30
2023-04-04T20:36:20.930Z,65.40
2023-04-04T20:38:48.350Z,65.80
2023-04-04T20:41:20.689Z,66.00
2023-04-04T20:43:57.878Z,66.50
2023-04-04T20:46:26.601Z,66.50
2023-04-04T20:48:56.862Z,66.60
2023-04-04T20:51:27.399Z,66.80
2023-04-04T20:53:56.473Z,66.70
2023-04-04T20:56:41.405Z,66.90
2023-04-04T20:59:31.326Z,67.40
2023-04-04T21:02:19.694Z,67.30
2023-04-04T21:04:49.682Z,67.20
2023-04-04T21:07:44.513Z,67.30
2023-04-04T21:10:23.499Z,67.30
2023-04-04T21:12:51.580Z,67.70
2023-04-04T21:15:28.460Z,67.30
2023-04-04T21:18:00.371Z,67.70
2023-04-04T21:20:42.425Z,68.30
2023-04-04T21:23:25.058Z,68.50
2023-04-04T21:25:56.521Z,68.80
2023-04-04T21:28:33.325Z,69.00
2023-04-04T21:31:00.959Z,69.00
2023-04-04T21:33:27.941Z,69.20
2023-04-04T21:35:56.324Z,69.70
2023-04-04T21:38:26.311Z,69.70
2023-04-04T21:40:53.073Z,70.20
2023-04-04T21:43:19.941Z,70.20
2023-04-04T21:45:46.884Z,70.30
2023-04-04T21:48:13.812Z,70.00
2023-04-04T21:50:41.110Z,70.50
2023-04-04T21:53:08.076Z,70.80
2023-04-04T21:55:34.913Z,71.00
2023-04-04T21:58:01.637Z,71.30
2023-04-04T22:00:28.514Z,71.00
2023-04-04T22:02:55.472Z,71.20
2023-04-04T22:05:29.154Z,71.60
2023-04-04T22:08:03.208Z,71.20
2023-04-04T22:10:31.210Z,71.30
2023-04-04T22:13:00.089Z,71.60
2023-04-04T22:15:30.025Z,71.20
2023-04-04T22:18:04.033Z,71.30
2023-04-04T22:20:33.860Z,71.20
2023-04-04T22:23:05.161Z,71.70
2023-04-04T22:25:33.792Z,71.70
2023-04-04T22:28:03.462Z,71.70
2023-04-04T22:30:33.941Z,72.20
2023-04-04T22:33:03.244Z,73.20
2023-04-04T22:35:30.343Z,72.60
2023-04-04T22:38:01.009Z,72.70
2023-04-04T22:40:29.198Z,73.00
2023-04-04T22:42:56.607Z,72.90
2023-04-04T22:45:24.981Z,73.20
2023-04-04T22:47:51.775Z,73.70
2023-04-04T22:50:22.879Z,73.80
2023-04-04T22:52:49.906Z,73.70
2023-04-04T22:55:22.528Z,73.60
2023-04-04T22:57:49.533Z,74.20
2023-04-04T23:00:16.874Z,74.20
2023-04-04T23:02:45.450Z,74.60
2023-04-04T23:05:17.040Z,75.00
2023-04-04T23:07:45.640Z,74.30
2023-04-04T23:10:15.549Z,74.50
2023-04-04T23:12:42.306Z,74.60
2023-04-04T23:15:09.230Z,74.60
2023-04-04T23:17:38.875Z,74.80
2023-04-04T23:20:08.025Z,75.40
2023-04-04T23:22:34.971Z,75.20
2023-04-04T23:25:01.718Z,75.40
2023-04-04T23:27:28.467Z,75.30
2023-04-04T23:29:57.017Z,75.20
2023-04-04T23:32:23.805Z,75.30
2023-04-04T23:34:50.576Z,75.40
2023-04-04T23:37:17.539Z,75.40
2023-04-04T23:39:45.147Z,75.40
2023-04-04T23:42:11.946Z,75.70
2023-04-04T23:44:38.696Z,75.90
2023-04-04T23:47:05.882Z,76.50
2023-04-04T23:49:32.740Z,76.20
2023-04-04T23:51:59.453Z,76.30
2023-04-04T23:54:26.788Z,76.80
2023-04-04T23:56:53.574Z,76.40
2023-04-04T23:59:20.452Z,77.10
